Terminal Aerodrome Forecast
Issued by NWS Caribou, ME

Home | Current Version | Previous Version | Text Only | Print | Product List | Glossary On
Versions: 1 2 3 4 5 6 7 8 9 10 11 12 13 14 15 16 17 18 19
000
FTUS41 KCAR 210520
TAFCAR
TAF
KCAR 210520Z 2106/2206 25004KT P6SM SKC
     FM211500 31015KT P6SM FEW250
     FM212200 31012G23KT P6SM FEW250
     FM220000 33008KT P6SM SKC=

USA.gov is the U.S. government's official web portal to all federal, state and local government web resources and services.